sensor_id;sensor_type;location;lat;lon;timestamp;P1;durP1;ratioP1;P2;durP2;ratioP2
17441;SDS011;8838;50.144;8.176;2024-03-08T00:01:37;26.47;;;16.43;;
17441;SDS011;8838;50.144;8.176;2024-03-08T00:04:04;24.80;;;16.47;;
17441;SDS011;8838;50.144;8.176;2024-03-08T00:06:31;26.80;;;17.10;;
17441;SDS011;8838;50.144;8.176;2024-03-08T00:08:58;26.10;;;16.53;;
17441;SDS011;8838;50.144;8.176;2024-03-08T00:11:25;26.07;;;17.13;;
17441;SDS011;8838;50.144;8.176;2024-03-08T00:13:52;27.73;;;16.70;;
17441;SDS011;8838;50.144;8.176;2024-03-08T00:16:20;28.13;;;16.77;;
17441;SDS011;8838;50.144;8.176;2024-03-08T00:18:48;25.07;;;15.97;;
17441;SDS011;8838;50.144;8.176;2024-03-08T00:21:15;25.13;;;16.53;;
17441;SDS011;8838;50.144;8.176;2024-03-08T00:23:42;28.10;;;16.63;;
17441;SDS011;8838;50.144;8.176;2024-03-08T00:26:09;24.53;;;15.00;;
17441;SDS011;8838;50.144;8.176;2024-03-08T00:28:36;26.17;;;16.37;;
17441;SDS011;8838;50.144;8.176;2024-03-08T00:31:03;25.43;;;15.60;;
17441;SDS011;8838;50.144;8.176;2024-03-08T00:33:33;24.50;;;15.87;;
17441;SDS011;8838;50.144;8.176;2024-03-08T00:36:00;25.93;;;15.93;;
17441;SDS011;8838;50.144;8.176;2024-03-08T00:38:27;26.30;;;16.30;;
17441;SDS011;8838;50.144;8.176;2024-03-08T00:40:54;27.10;;;16.17;;
17441;SDS011;8838;50.144;8.176;2024-03-08T00:43:21;24.83;;;16.10;;
17441;SDS011;8838;50.144;8.176;2024-03-08T00:45:47;27.80;;;16.47;;
17441;SDS011;8838;50.144;8.176;2024-03-08T00:48:14;26.50;;;15.90;;
17441;SDS011;8838;50.144;8.176;2024-03-08T00:50:42;26.33;;;16.63;;
17441;SDS011;8838;50.144;8.176;2024-03-08T00:53:10;28.37;;;16.63;;
17441;SDS011;8838;50.144;8.176;2024-03-08T00:55:37;27.33;;;16.80;;
17441;SDS011;8838;50.144;8.176;2024-03-08T00:58:04;29.27;;;16.70;;
17441;SDS011;8838;50.144;8.176;2024-03-08T01:00:31;27.93;;;16.20;;
17441;SDS011;8838;50.144;8.176;2024-03-08T01:02:58;29.33;;;17.13;;
17441;SDS011;8838;50.144;8.176;2024-03-08T01:05:25;28.50;;;17.43;;
17441;SDS011;8838;50.144;8.176;2024-03-08T01:07:53;29.37;;;16.83;;
17441;SDS011;8838;50.144;8.176;2024-03-08T01:10:19;24.97;;;16.00;;
17441;SDS011;8838;50.144;8.176;2024-03-08T01:12:46;27.97;;;17.23;;
17441;SDS011;8838;50.144;8.176;2024-03-08T01:15:14;28.93;;;16.90;;
17441;SDS011;8838;50.144;8.176;2024-03-08T01:17:41;30.67;;;17.70;;
17441;SDS011;8838;50.144;8.176;2024-03-08T01:20:09;29.33;;;17.87;;
17441;SDS011;8838;50.144;8.176;2024-03-08T01:22:37;31.90;;;17.73;;
17441;SDS011;8838;50.144;8.176;2024-03-08T01:25:06;28.70;;;17.10;;
17441;SDS011;8838;50.144;8.176;2024-03-08T01:27:33;30.63;;;17.43;;
17441;SDS011;8838;50.144;8.176;2024-03-08T01:30:02;29.27;;;17.73;;
17441;SDS011;8838;50.144;8.176;2024-03-08T01:32:29;28.43;;;17.50;;
17441;SDS011;8838;50.144;8.176;2024-03-08T01:34:56;31.53;;;17.43;;
17441;SDS011;8838;50.144;8.176;2024-03-08T01:37:23;33.87;;;18.20;;
17441;SDS011;8838;50.144;8.176;2024-03-08T01:39:49;29.87;;;18.10;;
17441;SDS011;8838;50.144;8.176;2024-03-08T01:42:18;29.57;;;17.90;;
17441;SDS011;8838;50.144;8.176;2024-03-08T01:44:45;26.10;;;16.57;;
17441;SDS011;8838;50.144;8.176;2024-03-08T01:47:12;29.93;;;17.20;;
17441;SDS011;8838;50.144;8.176;2024-03-08T01:49:38;30.30;;;17.90;;
17441;SDS011;8838;50.144;8.176;2024-03-08T01:52:05;28.27;;;17.50;;
17441;SDS011;8838;50.144;8.176;2024-03-08T01:54:33;33.37;;;18.03;;
17441;SDS011;8838;50.144;8.176;2024-03-08T01:57:00;30.07;;;17.87;;
17441;SDS011;8838;50.144;8.176;2024-03-08T01:59:29;29.67;;;17.47;;
17441;SDS011;8838;50.144;8.176;2024-03-08T02:01:56;27.93;;;17.83;;
17441;SDS011;8838;50.144;8.176;2024-03-08T02:04:28;31.33;;;18.53;;
17441;SDS011;8838;50.144;8.176;2024-03-08T02:06:56;30.43;;;18.07;;
17441;SDS011;8838;50.144;8.176;2024-03-08T02:09:23;33.37;;;18.07;;
17441;SDS011;8838;50.144;8.176;2024-03-08T02:11:50;28.63;;;17.20;;
17441;SDS011;8838;50.144;8.176;2024-03-08T02:14:19;30.63;;;17.77;;
17441;SDS011;8838;50.144;8.176;2024-03-08T02:16:48;30.13;;;18.47;;
17441;SDS011;8838;50.144;8.176;2024-03-08T02:19:16;32.10;;;17.20;;
17441;SDS011;8838;50.144;8.176;2024-03-08T02:21:44;28.47;;;17.70;;
17441;SDS011;8838;50.144;8.176;2024-03-08T02:24:12;31.90;;;18.07;;
17441;SDS011;8838;50.144;8.176;2024-03-08T02:26:39;27.87;;;17.53;;
17441;SDS011;8838;50.144;8.176;2024-03-08T02:29:07;31.20;;;17.37;;
17441;SDS011;8838;50.144;8.176;2024-03-08T02:31:34;30.43;;;16.93;;
17441;SDS011;8838;50.144;8.176;2024-03-08T02:34:01;30.60;;;17.80;;
17441;SDS011;8838;50.144;8.176;2024-03-08T02:36:28;29.37;;;17.53;;
17441;SDS011;8838;50.144;8.176;2024-03-08T02:38:56;33.20;;;18.20;;
17441;SDS011;8838;50.144;8.176;2024-03-08T02:41:23;29.40;;;17.03;;
17441;SDS011;8838;50.144;8.176;2024-03-08T02:43:50;29.30;;;18.00;;
17441;SDS011;8838;50.144;8.176;2024-03-08T02:46:16;28.60;;;17.50;;
17441;SDS011;8838;50.144;8.176;2024-03-08T02:48:43;30.73;;;18.10;;
17441;SDS011;8838;50.144;8.176;2024-03-08T02:51:10;28.30;;;18.13;;
17441;SDS011;8838;50.144;8.176;2024-03-08T02:53:37;30.17;;;17.77;;
17441;SDS011;8838;50.144;8.176;2024-03-08T02:56:05;34.37;;;17.60;;
17441;SDS011;8838;50.144;8.176;2024-03-08T02:58:34;27.93;;;17.23;;
17441;SDS011;8838;50.144;8.176;2024-03-08T03:01:00;32.20;;;17.93;;
17441;SDS011;8838;50.144;8.176;2024-03-08T03:03:27;29.70;;;17.97;;
17441;SDS011;8838;50.144;8.176;2024-03-08T03:05:54;33.87;;;18.57;;
17441;SDS011;8838;50.144;8.176;2024-03-08T03:08:21;29.90;;;17.47;;
17441;SDS011;8838;50.144;8.176;2024-03-08T03:10:48;30.83;;;17.50;;
17441;SDS011;8838;50.144;8.176;2024-03-08T03:13:17;28.93;;;17.37;;
17441;SDS011;8838;50.144;8.176;2024-03-08T03:15:45;28.97;;;17.67;;
17441;SDS011;8838;50.144;8.176;2024-03-08T03:18:12;29.80;;;17.03;;
17441;SDS011;8838;50.144;8.176;2024-03-08T03:20:40;30.40;;;17.47;;
17441;SDS011;8838;50.144;8.176;2024-03-08T03:23:07;32.47;;;17.53;;
17441;SDS011;8838;50.144;8.176;2024-03-08T03:25:38;28.53;;;17.57;;
17441;SDS011;8838;50.144;8.176;2024-03-08T03:28:06;32.70;;;17.57;;
17441;SDS011;8838;50.144;8.176;2024-03-08T03:30:37;30.07;;;17.73;;
17441;SDS011;8838;50.144;8.176;2024-03-08T03:33:04;28.70;;;17.17;;
17441;SDS011;8838;50.144;8.176;2024-03-08T03:35:31;30.60;;;18.83;;
17441;SDS011;8838;50.144;8.176;2024-03-08T03:37:59;31.10;;;18.23;;
17441;SDS011;8838;50.144;8.176;2024-03-08T03:40:31;31.30;;;17.93;;
17441;SDS011;8838;50.144;8.176;2024-03-08T03:42:59;34.43;;;18.90;;
17441;SDS011;8838;50.144;8.176;2024-03-08T03:45:26;30.53;;;18.33;;
17441;SDS011;8838;50.144;8.176;2024-03-08T03:47:54;31.13;;;18.13;;
17441;SDS011;8838;50.144;8.176;2024-03-08T03:50:21;32.03;;;17.87;;
17441;SDS011;8838;50.144;8.176;2024-03-08T03:52:48;32.50;;;18.20;;
17441;SDS011;8838;50.144;8.176;2024-03-08T03:55:15;32.53;;;19.23;;
17441;SDS011;8838;50.144;8.176;2024-03-08T03:57:42;31.90;;;19.23;;
17441;SDS011;8838;50.144;8.176;2024-03-08T04:00:11;31.37;;;18.57;;
17441;SDS011;8838;50.144;8.176;2024-03-08T04:02:38;30.87;;;18.13;;
17441;SDS011;8838;50.144;8.176;2024-03-08T04:05:08;35.47;;;19.23;;
17441;SDS011;8838;50.144;8.176;2024-03-08T04:07:36;31.20;;;18.90;;
17441;SDS011;8838;50.144;8.176;2024-03-08T04:10:03;33.00;;;20.43;;
17441;SDS011;8838;50.144;8.176;2024-03-08T04:12:32;33.83;;;19.33;;
17441;SDS011;8838;50.144;8.176;2024-03-08T04:14:59;35.30;;;19.77;;
17441;SDS011;8838;50.144;8.176;2024-03-08T04:17:26;35.27;;;20.10;;
17441;SDS011;8838;50.144;8.176;2024-03-08T04:19:52;36.30;;;20.13;;
17441;SDS011;8838;50.144;8.176;2024-03-08T04:22:21;34.97;;;19.57;;
17441;SDS011;8838;50.144;8.176;2024-03-08T04:24:47;35.87;;;19.67;;
17441;SDS011;8838;50.144;8.176;2024-03-08T04:27:14;34.87;;;20.50;;
17441;SDS011;8838;50.144;8.176;2024-03-08T04:29:41;37.77;;;20.83;;
17441;SDS011;8838;50.144;8.176;2024-03-08T04:32:08;35.20;;;20.43;;
17441;SDS011;8838;50.144;8.176;2024-03-08T04:34:36;35.27;;;20.13;;
17441;SDS011;8838;50.144;8.176;2024-03-08T04:37:03;36.97;;;20.70;;
17441;SDS011;8838;50.144;8.176;2024-03-08T04:39:31;34.20;;;19.60;;
17441;SDS011;8838;50.144;8.176;2024-03-08T04:41:59;37.37;;;20.67;;
17441;SDS011;8838;50.144;8.176;2024-03-08T04:44:32;37.67;;;20.37;;
17441;SDS011;8838;50.144;8.176;2024-03-08T04:46:59;35.63;;;20.37;;
17441;SDS011;8838;50.144;8.176;2024-03-08T04:49:26;34.60;;;20.67;;
17441;SDS011;8838;50.144;8.176;2024-03-08T04:51:54;39.33;;;20.33;;
17441;SDS011;8838;50.144;8.176;2024-03-08T04:54:21;35.53;;;20.17;;
17441;SDS011;8838;50.144;8.176;2024-03-08T04:56:52;35.50;;;20.70;;
17441;SDS011;8838;50.144;8.176;2024-03-08T04:59:18;38.10;;;20.47;;
17441;SDS011;8838;50.144;8.176;2024-03-08T05:01:46;35.87;;;20.40;;
17441;SDS011;8838;50.144;8.176;2024-03-08T05:04:12;36.47;;;21.03;;
17441;SDS011;8838;50.144;8.176;2024-03-08T05:06:40;37.10;;;20.90;;
17441;SDS011;8838;50.144;8.176;2024-03-08T05:09:07;37.47;;;21.17;;
17441;SDS011;8838;50.144;8.176;2024-03-08T05:11:41;43.10;;;22.23;;
17441;SDS011;8838;50.144;8.176;2024-03-08T05:14:10;38.30;;;20.13;;
17441;SDS011;8838;50.144;8.176;2024-03-08T05:16:39;36.60;;;21.13;;
17441;SDS011;8838;50.144;8.176;2024-03-08T05:19:05;36.93;;;20.30;;
17441;SDS011;8838;50.144;8.176;2024-03-08T05:21:32;35.40;;;19.87;;
17441;SDS011;8838;50.144;8.176;2024-03-08T05:23:59;35.03;;;20.90;;
17441;SDS011;8838;50.144;8.176;2024-03-08T05:26:26;39.97;;;21.07;;
17441;SDS011;8838;50.144;8.176;2024-03-08T05:28:52;34.87;;;20.53;;
17441;SDS011;8838;50.144;8.176;2024-03-08T05:31:21;35.70;;;20.47;;
17441;SDS011;8838;50.144;8.176;2024-03-08T05:33:48;34.00;;;20.37;;
17441;SDS011;8838;50.144;8.176;2024-03-08T05:36:15;37.90;;;21.77;;
17441;SDS011;8838;50.144;8.176;2024-03-08T05:38:42;37.60;;;21.70;;
17441;SDS011;8838;50.144;8.176;2024-03-08T05:41:09;38.33;;;21.97;;
17441;SDS011;8838;50.144;8.176;2024-03-08T05:43:37;35.57;;;20.33;;
17441;SDS011;8838;50.144;8.176;2024-03-08T05:46:03;37.93;;;22.20;;
17441;SDS011;8838;50.144;8.176;2024-03-08T05:48:32;37.17;;;20.57;;
17441;SDS011;8838;50.144;8.176;2024-03-08T05:50:59;39.87;;;21.87;;
17441;SDS011;8838;50.144;8.176;2024-03-08T05:53:26;35.83;;;21.07;;
17441;SDS011;8838;50.144;8.176;2024-03-08T05:55:56;34.57;;;20.87;;
17441;SDS011;8838;50.144;8.176;2024-03-08T05:58:23;39.83;;;22.43;;
17441;SDS011;8838;50.144;8.176;2024-03-08T06:00:50;37.90;;;21.73;;
17441;SDS011;8838;50.144;8.176;2024-03-08T06:03:17;37.90;;;21.47;;
17441;SDS011;8838;50.144;8.176;2024-03-08T06:05:48;37.47;;;21.77;;
17441;SDS011;8838;50.144;8.176;2024-03-08T06:08:15;38.03;;;21.87;;
17441;SDS011;8838;50.144;8.176;2024-03-08T06:10:42;37.13;;;20.47;;
17441;SDS011;8838;50.144;8.176;2024-03-08T06:13:09;36.30;;;21.70;;
17441;SDS011;8838;50.144;8.176;2024-03-08T06:15:37;39.43;;;21.53;;
17441;SDS011;8838;50.144;8.176;2024-03-08T06:18:04;39.10;;;21.83;;
17441;SDS011;8838;50.144;8.176;2024-03-08T06:20:31;35.93;;;21.73;;
17441;SDS011;8838;50.144;8.176;2024-03-08T06:23:00;36.67;;;21.40;;
17441;SDS011;8838;50.144;8.176;2024-03-08T06:25:27;36.00;;;21.13;;
17441;SDS011;8838;50.144;8.176;2024-03-08T06:27:54;34.67;;;20.83;;
17441;SDS011;8838;50.144;8.176;2024-03-08T06:30:21;37.07;;;21.90;;
17441;SDS011;8838;50.144;8.176;2024-03-08T06:32:48;32.90;;;20.47;;
17441;SDS011;8838;50.144;8.176;2024-03-08T06:35:15;38.17;;;22.07;;
17441;SDS011;8838;50.144;8.176;2024-03-08T06:37:42;34.90;;;20.73;;
17441;SDS011;8838;50.144;8.176;2024-03-08T06:40:12;33.37;;;20.70;;
17441;SDS011;8838;50.144;8.176;2024-03-08T06:42:40;35.40;;;21.07;;
17441;SDS011;8838;50.144;8.176;2024-03-08T06:45:08;33.87;;;20.73;;
17441;SDS011;8838;50.144;8.176;2024-03-08T06:47:35;35.10;;;21.00;;
17441;SDS011;8838;50.144;8.176;2024-03-08T06:50:02;35.60;;;21.10;;
17441;SDS011;8838;50.144;8.176;2024-03-08T06:52:30;33.07;;;20.47;;
17441;SDS011;8838;50.144;8.176;2024-03-08T06:54:58;33.43;;;20.33;;
17441;SDS011;8838;50.144;8.176;2024-03-08T06:57:28;34.43;;;19.93;;
17441;SDS011;8838;50.144;8.176;2024-03-08T06:59:54;34.97;;;20.23;;
17441;SDS011;8838;50.144;8.176;2024-03-08T07:02:22;35.77;;;20.17;;
17441;SDS011;8838;50.144;8.176;2024-03-08T07:04:49;35.07;;;20.27;;
17441;SDS011;8838;50.144;8.176;2024-03-08T07:07:16;34.17;;;19.47;;
17441;SDS011;8838;50.144;8.176;2024-03-08T07:09:45;32.47;;;19.00;;
17441;SDS011;8838;50.144;8.176;2024-03-08T07:12:14;38.63;;;20.60;;
17441;SDS011;8838;50.144;8.176;2024-03-08T07:14:41;34.03;;;20.37;;
17441;SDS011;8838;50.144;8.176;2024-03-08T07:17:10;34.40;;;20.07;;
17441;SDS011;8838;50.144;8.176;2024-03-08T07:19:37;33.37;;;19.37;;
17441;SDS011;8838;50.144;8.176;2024-03-08T07:22:04;33.63;;;19.83;;
17441;SDS011;8838;50.144;8.176;2024-03-08T07:24:33;33.87;;;19.37;;
17441;SDS011;8838;50.144;8.176;2024-03-08T07:27:15;32.83;;;19.93;;
17441;SDS011;8838;50.144;8.176;2024-03-08T07:29:44;29.13;;;17.80;;
17441;SDS011;8838;50.144;8.176;2024-03-08T07:32:11;28.67;;;18.20;;
17441;SDS011;8838;50.144;8.176;2024-03-08T07:34:46;32.27;;;18.90;;
17441;SDS011;8838;50.144;8.176;2024-03-08T07:37:13;30.10;;;19.03;;
17441;SDS011;8838;50.144;8.176;2024-03-08T07:39:40;29.00;;;17.57;;
17441;SDS011;8838;50.144;8.176;2024-03-08T07:42:08;32.00;;;18.10;;
17441;SDS011;8838;50.144;8.176;2024-03-08T07:44:35;28.37;;;17.43;;
17441;SDS011;8838;50.144;8.176;2024-03-08T07:47:04;31.23;;;16.60;;
17441;SDS011;8838;50.144;8.176;2024-03-08T07:49:34;26.80;;;16.93;;
17441;SDS011;8838;50.144;8.176;2024-03-08T07:52:02;27.63;;;16.37;;
17441;SDS011;8838;50.144;8.176;2024-03-08T07:54:32;29.93;;;17.73;;
17441;SDS011;8838;50.144;8.176;2024-03-08T07:56:59;29.87;;;17.80;;
17441;SDS011;8838;50.144;8.176;2024-03-08T07:59:27;26.80;;;16.10;;
17441;SDS011;8838;50.144;8.176;2024-03-08T08:01:54;24.47;;;15.47;;
17441;SDS011;8838;50.144;8.176;2024-03-08T08:04:22;24.77;;;15.20;;
17441;SDS011;8838;50.144;8.176;2024-03-08T08:06:50;26.10;;;15.90;;
17441;SDS011;8838;50.144;8.176;2024-03-08T08:09:17;26.53;;;15.90;;
17441;SDS011;8838;50.144;8.176;2024-03-08T08:11:53;27.80;;;15.73;;
17441;SDS011;8838;50.144;8.176;2024-03-08T08:14:20;27.17;;;16.73;;
17441;SDS011;8838;50.144;8.176;2024-03-08T08:16:47;27.30;;;15.87;;
17441;SDS011;8838;50.144;8.176;2024-03-08T08:19:17;23.43;;;14.93;;
17441;SDS011;8838;50.144;8.176;2024-03-08T08:21:46;24.60;;;15.33;;
17441;SDS011;8838;50.144;8.176;2024-03-08T08:24:13;24.70;;;14.80;;
17441;SDS011;8838;50.144;8.176;2024-03-08T08:26:40;27.13;;;16.23;;
17441;SDS011;8838;50.144;8.176;2024-03-08T08:29:09;24.60;;;14.77;;
17441;SDS011;8838;50.144;8.176;2024-03-08T08:31:36;22.70;;;14.33;;
17441;SDS011;8838;50.144;8.176;2024-03-08T08:34:03;24.80;;;15.33;;
17441;SDS011;8838;50.144;8.176;2024-03-08T08:36:31;27.63;;;15.83;;
17441;SDS011;8838;50.144;8.176;2024-03-08T08:39:00;24.93;;;15.80;;
17441;SDS011;8838;50.144;8.176;2024-03-08T08:41:28;21.83;;;14.73;;
17441;SDS011;8838;50.144;8.176;2024-03-08T08:43:55;49.43;;;28.43;;
17441;SDS011;8838;50.144;8.176;2024-03-08T08:46:22;24.67;;;15.60;;
17441;SDS011;8838;50.144;8.176;2024-03-08T08:48:49;22.50;;;14.43;;
17441;SDS011;8838;50.144;8.176;2024-03-08T08:51:16;25.50;;;14.37;;
17441;SDS011;8838;50.144;8.176;2024-03-08T08:53:42;20.17;;;13.17;;
17441;SDS011;8838;50.144;8.176;2024-03-08T08:56:12;20.65;;;13.38;;
17441;SDS011;8838;50.144;8.176;2024-03-08T08:58:39;23.48;;;14.02;;
17441;SDS011;8838;50.144;8.176;2024-03-08T09:01:07;24.30;;;14.77;;
17441;SDS011;8838;50.144;8.176;2024-03-08T09:03:35;21.80;;;13.90;;
17441;SDS011;8838;50.144;8.176;2024-03-08T09:06:02;24.77;;;14.45;;
17441;SDS011;8838;50.144;8.176;2024-03-08T09:08:30;23.13;;;13.95;;
17441;SDS011;8838;50.144;8.176;2024-03-08T09:10:57;21.50;;;14.50;;
17441;SDS011;8838;50.144;8.176;2024-03-08T09:13:26;22.20;;;13.40;;
17441;SDS011;8838;50.144;8.176;2024-03-08T09:15:53;22.77;;;14.13;;
17441;SDS011;8838;50.144;8.176;2024-03-08T09:18:20;24.25;;;14.15;;
17441;SDS011;8838;50.144;8.176;2024-03-08T09:20:47;22.85;;;14.95;;
17441;SDS011;8838;50.144;8.176;2024-03-08T09:23:13;23.50;;;14.00;;
17441;SDS011;8838;50.144;8.176;2024-03-08T09:25:42;23.90;;;14.80;;
17441;SDS011;8838;50.144;8.176;2024-03-08T09:28:09;20.98;;;13.88;;
17441;SDS011;8838;50.144;8.176;2024-03-08T09:30:38;20.60;;;13.77;;
17441;SDS011;8838;50.144;8.176;2024-03-08T09:33:05;20.70;;;13.93;;
17441;SDS011;8838;50.144;8.176;2024-03-08T09:35:32;20.83;;;13.43;;
17441;SDS011;8838;50.144;8.176;2024-03-08T09:37:59;21.60;;;14.57;;
17441;SDS011;8838;50.144;8.176;2024-03-08T09:40:26;40.80;;;24.55;;
17441;SDS011;8838;50.144;8.176;2024-03-08T09:42:53;28.77;;;18.92;;
17441;SDS011;8838;50.144;8.176;2024-03-08T09:45:20;21.05;;;13.90;;
17441;SDS011;8838;50.144;8.176;2024-03-08T09:47:50;22.15;;;14.07;;
17441;SDS011;8838;50.144;8.176;2024-03-08T09:50:18;21.48;;;13.35;;
17441;SDS011;8838;50.144;8.176;2024-03-08T09:52:46;19.77;;;13.88;;
17441;SDS011;8838;50.144;8.176;2024-03-08T09:55:14;20.33;;;13.57;;
17441;SDS011;8838;50.144;8.176;2024-03-08T09:57:43;22.17;;;13.50;;
17441;SDS011;8838;50.144;8.176;2024-03-08T10:00:32;20.80;;;13.55;;
17441;SDS011;8838;50.144;8.176;2024-03-08T10:03:01;20.67;;;13.95;;
17441;SDS011;8838;50.144;8.176;2024-03-08T10:05:30;21.40;;;13.40;;
17441;SDS011;8838;50.144;8.176;2024-03-08T10:07:58;17.40;;;12.20;;
17441;SDS011;8838;50.144;8.176;2024-03-08T10:10:25;17.25;;;13.05;;
17441;SDS011;8838;50.144;8.176;2024-03-08T10:12:52;18.92;;;13.60;;
17441;SDS011;8838;50.144;8.176;2024-03-08T10:15:19;18.45;;;13.38;;
17441;SDS011;8838;50.144;8.176;2024-03-08T10:17:46;18.00;;;12.30;;
17441;SDS011;8838;50.144;8.176;2024-03-08T10:20:15;19.50;;;12.43;;
17441;SDS011;8838;50.144;8.176;2024-03-08T10:22:43;18.23;;;12.45;;
17441;SDS011;8838;50.144;8.176;2024-03-08T10:25:10;23.58;;;13.75;;
17441;SDS011;8838;50.144;8.176;2024-03-08T10:27:37;19.48;;;13.30;;
17441;SDS011;8838;50.144;8.176;2024-03-08T10:30:06;19.40;;;12.98;;
17441;SDS011;8838;50.144;8.176;2024-03-08T10:32:37;20.85;;;14.20;;
17441;SDS011;8838;50.144;8.176;2024-03-08T10:35:05;18.27;;;12.95;;
17441;SDS011;8838;50.144;8.176;2024-03-08T10:37:34;22.63;;;13.90;;
17441;SDS011;8838;50.144;8.176;2024-03-08T10:40:12;19.75;;;13.95;;
17441;SDS011;8838;50.144;8.176;2024-03-08T10:42:45;18.50;;;12.80;;
17441;SDS011;8838;50.144;8.176;2024-03-08T10:45:19;18.20;;;12.30;;
17441;SDS011;8838;50.144;8.176;2024-03-08T10:47:55;17.42;;;12.18;;
17441;SDS011;8838;50.144;8.176;2024-03-08T10:50:33;17.48;;;11.82;;
17441;SDS011;8838;50.144;8.176;2024-03-08T10:53:03;18.42;;;12.68;;
17441;SDS011;8838;50.144;8.176;2024-03-08T10:55:33;17.38;;;12.38;;
17441;SDS011;8838;50.144;8.176;2024-03-08T10:58:05;19.27;;;12.20;;
17441;SDS011;8838;50.144;8.176;2024-03-08T11:00:32;20.08;;;11.30;;
17441;SDS011;8838;50.144;8.176;2024-03-08T11:03:00;17.70;;;10.93;;
17441;SDS011;8838;50.144;8.176;2024-03-08T11:05:32;17.17;;;11.35;;
17441;SDS011;8838;50.144;8.176;2024-03-08T11:08:05;16.50;;;11.85;;
17441;SDS011;8838;50.144;8.176;2024-03-08T11:10:46;17.45;;;11.02;;
17441;SDS011;8838;50.144;8.176;2024-03-08T11:16:01;17.45;;;11.95;;
17441;SDS011;8838;50.144;8.176;2024-03-08T11:18:32;25.70;;;15.35;;
17441;SDS011;8838;50.144;8.176;2024-03-08T11:21:01;17.77;;;11.88;;
17441;SDS011;8838;50.144;8.176;2024-03-08T11:23:33;15.35;;;10.35;;
17441;SDS011;8838;50.144;8.176;2024-03-08T11:26:01;15.52;;;11.20;;
17441;SDS011;8838;50.144;8.176;2024-03-08T11:28:32;17.55;;;10.75;;
17441;SDS011;8838;50.144;8.176;2024-03-08T11:33:49;18.60;;;11.30;;
17441;SDS011;8838;50.144;8.176;2024-03-08T11:36:20;16.77;;;11.25;;
17441;SDS011;8838;50.144;8.176;2024-03-08T11:38:51;16.35;;;9.95;;
17441;SDS011;8838;50.144;8.176;2024-03-08T11:41:20;14.25;;;10.25;;
17441;SDS011;8838;50.144;8.176;2024-03-08T11:43:49;16.70;;;11.40;;
17441;SDS011;8838;50.144;8.176;2024-03-08T11:46:17;17.70;;;11.52;;
17441;SDS011;8838;50.144;8.176;2024-03-08T11:48:46;15.50;;;10.68;;
17441;SDS011;8838;50.144;8.176;2024-03-08T11:51:15;17.52;;;10.88;;
17441;SDS011;8838;50.144;8.176;2024-03-08T11:53:43;16.65;;;11.23;;
17441;SDS011;8838;50.144;8.176;2024-03-08T11:56:12;17.85;;;10.95;;
17441;SDS011;8838;50.144;8.176;2024-03-08T11:58:40;19.35;;;11.75;;
17441;SDS011;8838;50.144;8.176;2024-03-08T12:01:08;17.10;;;11.40;;
17441;SDS011;8838;50.144;8.176;2024-03-08T12:03:37;22.17;;;11.60;;
17441;SDS011;8838;50.144;8.176;2024-03-08T12:06:04;19.98;;;11.55;;
17441;SDS011;8838;50.144;8.176;2024-03-08T12:08:34;20.45;;;11.90;;
17441;SDS011;8838;50.144;8.176;2024-03-08T12:11:03;19.35;;;10.75;;
17441;SDS011;8838;50.144;8.176;2024-03-08T12:13:32;17.75;;;11.20;;
17441;SDS011;8838;50.144;8.176;2024-03-08T12:16:00;22.67;;;11.43;;
17441;SDS011;8838;50.144;8.176;2024-03-08T12:18:32;18.67;;;11.85;;
17441;SDS011;8838;50.144;8.176;2024-03-08T12:21:06;17.25;;;10.85;;
17441;SDS011;8838;50.144;8.176;2024-03-08T12:23:33;19.08;;;11.20;;
17441;SDS011;8838;50.144;8.176;2024-03-08T12:26:09;18.75;;;10.70;;
17441;SDS011;8838;50.144;8.176;2024-03-08T12:28:39;19.38;;;11.57;;
17441;SDS011;8838;50.144;8.176;2024-03-08T12:31:09;18.25;;;11.20;;
17441;SDS011;8838;50.144;8.176;2024-03-08T12:33:48;19.20;;;12.43;;
17441;SDS011;8838;50.144;8.176;2024-03-08T12:36:15;17.00;;;11.10;;
17441;SDS011;8838;50.144;8.176;2024-03-08T12:38:43;17.85;;;11.40;;
17441;SDS011;8838;50.144;8.176;2024-03-08T12:41:12;21.00;;;11.85;;
17441;SDS011;8838;50.144;8.176;2024-03-08T12:43:41;17.67;;;11.48;;
17441;SDS011;8838;50.144;8.176;2024-03-08T12:46:13;17.63;;;11.02;;
17441;SDS011;8838;50.144;8.176;2024-03-08T12:48:40;18.17;;;11.88;;
17441;SDS011;8838;50.144;8.176;2024-03-08T12:51:12;17.75;;;11.45;;
17441;SDS011;8838;50.144;8.176;2024-03-08T12:53:39;19.30;;;11.95;;
17441;SDS011;8838;50.144;8.176;2024-03-08T12:56:09;20.98;;;11.45;;
17441;SDS011;8838;50.144;8.176;2024-03-08T12:58:36;20.02;;;12.02;;
17441;SDS011;8838;50.144;8.176;2024-03-08T13:01:05;20.95;;;12.38;;
17441;SDS011;8838;50.144;8.176;2024-03-08T13:03:35;16.38;;;10.75;;
17441;SDS011;8838;50.144;8.176;2024-03-08T13:06:02;18.95;;;11.25;;
17441;SDS011;8838;50.144;8.176;2024-03-08T13:08:33;18.67;;;11.77;;
17441;SDS011;8838;50.144;8.176;2024-03-08T13:11:04;18.70;;;12.18;;
17441;SDS011;8838;50.144;8.176;2024-03-08T13:13:32;19.10;;;11.90;;
17441;SDS011;8838;50.144;8.176;2024-03-08T13:16:00;18.83;;;11.43;;
17441;SDS011;8838;50.144;8.176;2024-03-08T13:18:28;19.92;;;12.35;;
17441;SDS011;8838;50.144;8.176;2024-03-08T13:20:55;20.58;;;11.98;;
17441;SDS011;8838;50.144;8.176;2024-03-08T13:23:22;21.25;;;11.77;;
17441;SDS011;8838;50.144;8.176;2024-03-08T13:25:49;21.70;;;12.48;;
17441;SDS011;8838;50.144;8.176;2024-03-08T13:28:16;22.60;;;13.27;;
17441;SDS011;8838;50.144;8.176;2024-03-08T13:30:48;19.83;;;12.45;;
17441;SDS011;8838;50.144;8.176;2024-03-08T13:33:15;20.50;;;12.88;;
17441;SDS011;8838;50.144;8.176;2024-03-08T13:35:43;18.38;;;12.00;;
17441;SDS011;8838;50.144;8.176;2024-03-08T13:38:11;20.42;;;12.57;;
17441;SDS011;8838;50.144;8.176;2024-03-08T13:40:38;19.48;;;12.05;;
17441;SDS011;8838;50.144;8.176;2024-03-08T13:43:05;18.92;;;11.48;;
17441;SDS011;8838;50.144;8.176;2024-03-08T13:45:33;24.38;;;15.48;;
17441;SDS011;8838;50.144;8.176;2024-03-08T13:48:03;22.50;;;14.00;;
17441;SDS011;8838;50.144;8.176;2024-03-08T13:50:31;19.40;;;12.45;;
17441;SDS011;8838;50.144;8.176;2024-03-08T13:52:59;21.73;;;11.88;;
17441;SDS011;8838;50.144;8.176;2024-03-08T13:55:26;26.65;;;12.93;;
17441;SDS011;8838;50.144;8.176;2024-03-08T13:57:53;20.38;;;13.40;;
17441;SDS011;8838;50.144;8.176;2024-03-08T14:00:23;20.77;;;13.02;;
17441;SDS011;8838;50.144;8.176;2024-03-08T14:02:53;22.88;;;13.25;;
17441;SDS011;8838;50.144;8.176;2024-03-08T14:05:20;23.08;;;12.63;;
17441;SDS011;8838;50.144;8.176;2024-03-08T14:07:47;22.60;;;14.30;;
17441;SDS011;8838;50.144;8.176;2024-03-08T14:10:15;21.88;;;12.88;;
17441;SDS011;8838;50.144;8.176;2024-03-08T14:12:44;23.52;;;12.38;;
17441;SDS011;8838;50.144;8.176;2024-03-08T14:15:14;21.58;;;13.25;;
17441;SDS011;8838;50.144;8.176;2024-03-08T14:17:41;22.40;;;13.68;;
17441;SDS011;8838;50.144;8.176;2024-03-08T14:20:09;21.27;;;13.30;;
17441;SDS011;8838;50.144;8.176;2024-03-08T14:22:38;21.10;;;12.25;;
17441;SDS011;8838;50.144;8.176;2024-03-08T14:25:05;21.20;;;13.13;;
17441;SDS011;8838;50.144;8.176;2024-03-08T14:27:43;19.33;;;12.57;;
17441;SDS011;8838;50.144;8.176;2024-03-08T14:30:11;20.77;;;12.82;;
17441;SDS011;8838;50.144;8.176;2024-03-08T14:32:38;33.38;;;19.67;;
17441;SDS011;8838;50.144;8.176;2024-03-08T14:35:06;35.38;;;21.55;;
17441;SDS011;8838;50.144;8.176;2024-03-08T14:37:36;19.45;;;12.88;;
17441;SDS011;8838;50.144;8.176;2024-03-08T14:40:03;19.13;;;12.27;;
17441;SDS011;8838;50.144;8.176;2024-03-08T14:42:31;20.88;;;13.38;;
17441;SDS011;8838;50.144;8.176;2024-03-08T14:44:59;20.73;;;12.43;;